createdAt,value
2018-11-21T00:01:09.661Z,96182.44
2018-11-21T00:03:41.194Z,96182.96
2018-11-21T00:06:13.280Z,96183.76
2018-11-21T00:08:45.417Z,96182.55
2018-11-21T00:11:16.896Z,96179.79
2018-11-21T00:13:48.910Z,96178.15
2018-11-21T00:16:21.081Z,96181.13
2018-11-21T00:18:52.630Z,96183.34
2018-11-21T00:21:23.615Z,96186.77
2018-11-21T00:23:53.938Z,96183.61
2018-11-21T00:26:24.622Z,96180.97
2018-11-21T00:28:55.715Z,96180.34
2018-11-21T00:31:27.132Z,96184.81
2018-11-21T00:33:58.649Z,96190.11
2018-11-21T00:36:30.113Z,96185.58
2018-11-21T00:39:01.497Z,96184.53
2018-11-21T00:41:33.083Z,96184.03
2018-11-21T00:44:20.438Z,96185.83
2018-11-21T00:46:52.646Z,96189.98
2018-11-21T00:49:24.391Z,96187.30
2018-11-21T00:51:55.117Z,96194.34
2018-11-21T00:54:26.541Z,96192.48
2018-11-21T00:56:57.874Z,96195.27
2018-11-21T00:59:29.771Z,96191.39
2018-11-21T01:02:01.188Z,96200.80
2018-11-21T01:04:31.783Z,96204.66
2018-11-21T01:07:03.396Z,96209.66
2018-11-21T01:09:35.913Z,96220.70
2018-11-21T01:12:07.161Z,96221.31
2018-11-21T01:14:38.156Z,96228.00
2018-11-21T01:17:08.394Z,96227.56
2018-11-21T01:19:38.674Z,96224.12
2018-11-21T01:22:08.728Z,96229.59
2018-11-21T01:24:40.106Z,96228.61
2018-11-21T01:27:11.599Z,96224.27
2018-11-21T01:29:42.965Z,96223.23
2018-11-21T01:32:15.702Z,96226.11
2018-11-21T01:34:46.112Z,96225.98
2018-11-21T01:37:17.039Z,96230.30
2018-11-21T01:39:48.477Z,96233.84
2018-11-21T01:42:20.538Z,96229.35
2018-11-21T01:44:50.159Z,96234.80
2018-11-21T01:47:19.551Z,96235.55
2018-11-21T01:49:49.260Z,96236.98
2018-11-21T01:52:18.693Z,96237.03
2018-11-21T01:54:49.889Z,96237.52
2018-11-21T01:57:22.319Z,96235.59
2018-11-21T01:59:54.247Z,96234.50
2018-11-21T02:02:25.489Z,96229.57
2018-11-21T02:04:57.030Z,96238.36
2018-11-21T02:07:27.704Z,96230.66
2018-11-21T02:09:58.798Z,96228.11
2018-11-21T02:12:29.815Z,96228.61
2018-11-21T02:15:01.882Z,96227.17
2018-11-21T02:17:33.364Z,96235.85
2018-11-21T02:20:02.971Z,96235.45
2018-11-21T02:22:35.320Z,96234.46
2018-11-21T02:25:05.465Z,96238.05
2018-11-21T02:27:36.493Z,96236.29
2018-11-21T02:30:08.238Z,96239.00
2018-11-21T02:35:09.975Z,96240.67
2018-11-21T02:37:41.555Z,96239.34
2018-11-21T02:40:11.828Z,96237.04
2018-11-21T02:42:43.371Z,96244.23
2018-11-21T02:45:34.940Z,96243.84
2018-11-21T02:48:05.816Z,96245.78
2018-11-21T02:54:24.480Z,96238.67
2018-11-21T02:57:32.842Z,96233.70
2018-11-21T03:00:20.699Z,96225.55
2018-11-21T03:02:52.065Z,96222.34
2018-11-21T03:05:22.662Z,96219.00
2018-11-21T03:07:58.277Z,96223.38
2018-11-21T03:10:28.403Z,96229.10
2018-11-21T03:12:58.995Z,96235.92
2018-11-21T03:15:29.100Z,96240.30
2018-11-21T03:17:59.120Z,96250.77
2018-11-21T03:20:31.451Z,96255.45
2018-11-21T03:23:03.211Z,96261.08
2018-11-21T03:25:53.793Z,96266.27
2018-11-21T03:28:25.398Z,96267.69
2018-11-21T03:30:56.210Z,96275.03
2018-11-21T03:33:28.578Z,96279.86
2018-11-21T03:35:59.938Z,96289.11
2018-11-21T03:38:29.296Z,96294.78
2018-11-21T03:40:59.686Z,96302.47
2018-11-21T03:43:30.261Z,96303.74
2018-11-21T03:46:00.907Z,96310.36
2018-11-21T03:48:31.823Z,96312.27
2018-11-21T03:51:03.747Z,96311.91
2018-11-21T03:53:35.076Z,96313.27
2018-11-21T03:56:05.365Z,96323.19
2018-11-21T03:58:38.459Z,96323.26
2018-11-21T04:01:09.962Z,96320.12
2018-11-21T04:03:40.694Z,96322.14
2018-11-21T04:06:11.488Z,96314.97
2018-11-21T04:08:42.599Z,96321.02
2018-11-21T04:11:12.105Z,96325.05
2018-11-21T04:13:43.699Z,96327.44
2018-11-21T04:16:13.991Z,96338.39
2018-11-21T04:18:44.681Z,96342.34
2018-11-21T04:21:15.941Z,96349.30
2018-11-21T04:23:47.142Z,96349.64
2018-11-21T04:26:18.471Z,96353.19
2018-11-21T04:29:07.592Z,96354.93
2018-11-21T04:31:39.646Z,96357.30
2018-11-21T04:34:10.329Z,96365.97
2018-11-21T04:36:40.037Z,96363.89
2018-11-21T04:39:11.769Z,96366.95
2018-11-21T04:41:42.605Z,96372.73
2018-11-21T04:44:13.342Z,96371.93
2018-11-21T04:46:44.940Z,96381.15
2018-11-21T04:49:15.439Z,96374.97
2018-11-21T04:51:45.783Z,96378.36
2018-11-21T04:54:16.219Z,96379.02
2018-11-21T04:56:45.923Z,96380.95
2018-11-21T04:59:55.131Z,96386.41
2018-11-21T05:02:25.900Z,96393.37
2018-11-21T05:04:59.182Z,96393.70
2018-11-21T05:07:28.685Z,96392.26
2018-11-21T05:10:00.982Z,96391.67
2018-11-21T05:12:32.259Z,96394.19
2018-11-21T05:15:10.215Z,96400.33
2018-11-21T05:17:41.300Z,96407.56
2018-11-21T05:20:11.961Z,96404.41
2018-11-21T05:22:43.734Z,96416.03
2018-11-21T05:25:17.959Z,96414.13
2018-11-21T05:27:49.486Z,96412.02
2018-11-21T05:30:19.990Z,96416.57
2018-11-21T05:32:51.624Z,96414.77
2018-11-21T05:35:24.041Z,96404.69
2018-11-21T05:37:53.648Z,96407.30
2018-11-21T05:40:24.490Z,96412.85
2018-11-21T05:43:17.035Z,96416.67
2018-11-21T05:45:48.633Z,96416.27
2018-11-21T05:48:19.221Z,96422.65
2018-11-21T05:50:48.966Z,96428.32
2018-11-21T05:53:19.036Z,96427.11
2018-11-21T05:55:50.803Z,96431.91
2018-11-21T05:58:25.704Z,96429.20
2018-11-21T06:00:57.140Z,96435.70
2018-11-21T06:04:03.532Z,96435.55
2018-11-21T06:06:34.869Z,96437.52
2018-11-21T06:09:07.371Z,96443.80
2018-11-21T06:11:38.211Z,96442.13
2018-11-21T06:14:08.421Z,96448.09
2018-11-21T06:16:49.760Z,96451.99
2018-11-21T06:19:21.431Z,96452.07
2018-11-21T06:22:07.427Z,96454.74
2018-11-21T06:24:40.128Z,96462.05
2018-11-21T06:27:09.761Z,96465.06
2018-11-21T06:29:44.185Z,96465.00
2018-11-21T06:32:16.022Z,96467.02
2018-11-21T06:34:48.047Z,96466.09
2018-11-21T06:37:20.014Z,96465.68
2018-11-21T06:39:51.283Z,96467.89
2018-11-21T06:42:23.258Z,96469.28
2018-11-21T06:44:54.008Z,96472.11
2018-11-21T06:47:40.059Z,96483.38
2018-11-21T06:50:09.801Z,96493.07
2018-11-21T06:52:40.780Z,96489.94
2018-11-21T06:55:12.401Z,96498.05
2018-11-21T06:57:43.400Z,96503.47
2018-11-21T07:00:15.287Z,96506.89
2018-11-21T07:02:45.249Z,96509.70
2018-11-21T07:05:16.729Z,96519.44
2018-11-21T07:07:46.817Z,96518.66
2018-11-21T07:10:17.452Z,96521.55
2018-11-21T07:12:47.794Z,96530.25
2018-11-21T07:15:19.594Z,96525.33
2018-11-21T07:17:50.227Z,96533.66
2018-11-21T07:20:28.242Z,96535.77
2018-11-21T07:23:00.108Z,96541.00
2018-11-21T07:25:30.905Z,96547.75
2018-11-21T07:28:03.286Z,96547.58
2018-11-21T07:30:34.296Z,96553.70
2018-11-21T07:33:05.222Z,96555.95
2018-11-21T07:35:36.090Z,96561.08
2018-11-21T07:38:06.165Z,96557.17
2018-11-21T07:40:37.995Z,96562.14
2018-11-21T07:43:07.754Z,96563.02
2018-11-21T07:45:39.877Z,96573.95
2018-11-21T07:48:11.336Z,96571.53
2018-11-21T07:50:42.280Z,96575.06
2018-11-21T07:53:14.769Z,96582.48
2018-11-21T07:55:47.070Z,96588.50
2018-11-21T07:58:19.134Z,96587.08
2018-11-21T08:01:14.527Z,96581.55
2018-11-21T08:04:07.557Z,96583.96
2018-11-21T08:06:52.918Z,96586.37
2018-11-21T08:09:44.369Z,96578.87
2018-11-21T08:12:24.212Z,96571.06
2018-11-21T08:15:19.447Z,96573.47
2018-11-21T08:22:07.437Z,96583.08
2018-11-21T08:24:56.886Z,96572.81
2018-11-21T08:27:44.522Z,96569.16
2018-11-21T08:30:14.805Z,96581.12
2018-11-21T08:32:45.764Z,96591.40
2018-11-21T08:35:17.732Z,96597.63
2018-11-21T08:37:49.469Z,96596.77
2018-11-21T08:40:19.208Z,96596.79
2018-11-21T08:42:50.593Z,96597.51
2018-11-21T08:45:21.646Z,96600.77
2018-11-21T08:47:52.673Z,96604.41
2018-11-21T08:50:23.663Z,96606.52
2018-11-21T08:52:55.248Z,96611.50
2018-11-21T08:55:26.573Z,96605.11
2018-11-21T08:57:58.377Z,96605.20
2018-11-21T09:00:29.916Z,96607.57
2018-11-21T09:03:01.014Z,96615.45
2018-11-21T09:05:30.541Z,96616.75
2018-11-21T09:08:00.718Z,96621.40
2018-11-21T09:13:02.100Z,96624.13
2018-11-21T09:15:33.490Z,96615.70
2018-11-21T09:18:06.448Z,96619.53
2018-11-21T09:20:37.540Z,96619.00
2018-11-21T09:23:08.557Z,96623.55
2018-11-21T09:25:39.147Z,96625.41
2018-11-21T09:28:09.278Z,96624.00
2018-11-21T09:30:39.493Z,96635.22
2018-11-21T09:33:11.959Z,96650.61
2018-11-21T09:35:41.727Z,96651.22
2018-11-21T09:38:11.557Z,96643.86
2018-11-21T09:40:43.963Z,96643.59
2018-11-21T09:43:16.363Z,96642.82
2018-11-21T09:45:48.050Z,96643.30
2018-11-21T09:48:18.986Z,96648.61
2018-11-21T09:50:50.743Z,96650.45
2018-11-21T09:53:22.788Z,96654.69
2018-11-21T09:55:53.020Z,96649.72
2018-11-21T09:58:23.210Z,96648.42
2018-11-21T10:01:48.503Z,96655.02
2018-11-21T10:04:19.737Z,96657.66
2018-11-21T10:06:50.713Z,96657.78
2018-11-21T10:09:24.566Z,96658.70
2018-11-21T10:11:55.952Z,96664.95
2018-11-21T10:14:26.810Z,96667.13
2018-11-21T10:16:58.687Z,96661.05
2018-11-21T10:19:30.236Z,96652.91
2018-11-21T10:22:01.376Z,96662.61
2018-11-21T10:24:32.331Z,96663.05
2018-11-21T10:27:02.793Z,96674.33
2018-11-21T10:29:59.038Z,96670.45
2018-11-21T10:32:29.425Z,96660.75
2018-11-21T10:35:00.732Z,96662.22
2018-11-21T10:37:30.893Z,96656.15
2018-11-21T10:40:01.775Z,96654.87
2018-11-21T10:42:34.713Z,96655.22
2018-11-21T10:45:07.264Z,96656.92
2018-11-21T10:47:37.757Z,96659.39
2018-11-21T10:50:09.579Z,96660.54
2018-11-21T10:52:40.214Z,96656.30
2018-11-21T10:55:10.036Z,96649.50
2018-11-21T10:57:58.407Z,96653.96
2018-11-21T11:00:47.366Z,96642.97
2018-11-21T11:03:21.937Z,96649.86
2018-11-21T11:06:04.710Z,96662.63
2018-11-21T11:08:53.155Z,96671.89
2018-11-21T11:11:57.781Z,96668.48
2018-11-21T11:14:57.189Z,96663.85
2018-11-21T11:18:01.835Z,96665.72
2018-11-21T11:20:52.916Z,96668.63
2018-11-21T11:23:48.364Z,96661.31
2018-11-21T11:26:36.216Z,96671.87
2018-11-21T11:29:37.769Z,96673.98
2018-11-21T11:32:15.713Z,96678.71
2018-11-21T11:35:34.225Z,96669.86
2018-11-21T11:38:23.494Z,96687.86
2018-11-21T11:41:29.213Z,96697.68
2018-11-21T11:44:24.822Z,96692.42
2018-11-21T11:47:22.341Z,96688.04
2018-11-21T11:50:08.545Z,96682.64
2018-11-21T11:52:56.013Z,96690.57
2018-11-21T11:55:41.949Z,96692.11
2018-11-21T11:58:42.127Z,96691.15
2018-11-21T12:01:31.863Z,96688.73
2018-11-21T12:04:20.322Z,96686.84
2018-11-21T12:07:25.419Z,96700.27
2018-11-21T12:10:14.455Z,96709.56
2018-11-21T12:13:05.707Z,96710.53
2018-11-21T12:16:02.796Z,96721.86
2018-11-21T12:18:57.777Z,96722.59
2018-11-21T12:21:53.293Z,96716.37
2018-11-21T12:24:49.772Z,96721.55
2018-11-21T12:27:39.464Z,96720.77
2018-11-21T12:30:29.201Z,96722.94
2018-11-21T12:33:17.605Z,96714.14
2018-11-21T12:36:04.416Z,96713.34
2018-11-21T12:38:53.248Z,96717.28
2018-11-21T12:41:45.670Z,96712.50
2018-11-21T12:44:38.758Z,96711.50
2018-11-21T12:47:28.939Z,96712.07
2018-11-21T12:50:14.700Z,96714.16
2018-11-21T12:53:05.401Z,96716.69
2018-11-21T12:55:53.874Z,96722.77
2018-11-21T12:58:56.145Z,96715.44
2018-11-21T13:01:35.273Z,96712.81
2018-11-21T13:04:27.110Z,96709.26
2018-11-21T13:07:28.045Z,96715.26
2018-11-21T13:10:27.122Z,96714.97
2018-11-21T13:13:15.646Z,96719.23
2018-11-21T13:16:31.688Z,96719.17
2018-11-21T13:19:24.584Z,96723.81
2018-11-21T13:22:15.965Z,96729.11
2018-11-21T13:25:09.137Z,96736.95
2018-11-21T13:27:57.524Z,96740.92
2018-11-21T13:31:12.135Z,96740.86
2018-11-21T13:34:00.384Z,96739.25
2018-11-21T13:37:00.627Z,96744.87
2018-11-21T13:39:47.922Z,96747.30
2018-11-21T13:42:54.823Z,96754.02
2018-11-21T13:45:42.641Z,96758.27
2018-11-21T13:48:26.897Z,96756.88
2018-11-21T13:51:27.101Z,96764.08
2018-11-21T13:54:15.143Z,96762.75
2018-11-21T13:57:02.142Z,96773.30
2018-11-21T13:59:38.822Z,96772.34
2018-11-21T14:02:09.468Z,96776.63
2018-11-21T14:04:57.840Z,96780.38
2018-11-21T14:07:34.694Z,96776.50
2018-11-21T14:10:35.830Z,96778.29
2018-11-21T14:13:06.186Z,96780.16
2018-11-21T14:15:36.102Z,96786.09
2018-11-21T14:18:06.408Z,96780.96
2018-11-21T14:20:45.154Z,96787.30
2018-11-21T14:23:16.690Z,96788.83
2018-11-21T14:25:47.094Z,96795.44
2018-11-21T14:28:20.191Z,96805.41
2018-11-21T14:30:50.406Z,96803.97
2018-11-21T14:33:21.149Z,96814.77
2018-11-21T14:35:56.020Z,96815.37
2018-11-21T14:38:33.716Z,96807.44
2018-11-21T14:41:05.457Z,96815.30
2018-11-21T14:43:36.331Z,96817.88
2018-11-21T14:46:16.411Z,96822.69
2018-11-21T14:48:47.477Z,96831.03
2018-11-21T14:51:17.279Z,96839.58
2018-11-21T14:53:50.411Z,96837.37
2018-11-21T14:56:43.630Z,96846.25
2018-11-21T14:59:14.692Z,96847.63
2018-11-21T15:01:46.263Z,96845.55
2018-11-21T15:04:18.885Z,96849.25
2018-11-21T15:06:49.669Z,96857.41
2018-11-21T15:09:19.379Z,96861.14
2018-11-21T15:11:49.470Z,96864.89
2018-11-21T15:14:23.512Z,96865.12
2018-11-21T15:16:54.863Z,96862.69
2018-11-21T15:19:25.459Z,96870.65
2018-11-21T15:21:55.914Z,96875.75
2018-11-21T15:24:27.503Z,96874.66
2018-11-21T15:27:06.758Z,96874.19
2018-11-21T15:29:48.247Z,96879.87
2018-11-21T15:32:18.127Z,96881.34
2018-11-21T15:34:48.698Z,96884.50
2018-11-21T15:37:21.595Z,96886.89
2018-11-21T15:39:54.266Z,96890.28
2018-11-21T15:42:27.623Z,96887.02
2018-11-21T15:45:04.012Z,96890.80
2018-11-21T15:47:46.210Z,96898.78
2018-11-21T15:50:16.887Z,96902.55
2018-11-21T15:52:53.046Z,96909.50
2018-11-21T15:55:26.452Z,96910.34
2018-11-21T15:58:24.901Z,96911.89
2018-11-21T16:01:03.365Z,96912.08
2018-11-21T16:03:34.592Z,96914.08
2018-11-21T16:06:04.679Z,96918.89
2018-11-21T16:08:35.701Z,96919.39
2018-11-21T16:11:05.588Z,96923.83
2018-11-21T16:13:37.133Z,96926.36
2018-11-21T16:16:07.905Z,96930.06
2018-11-21T16:18:39.965Z,96935.06
2018-11-21T16:21:11.781Z,96938.21
2018-11-21T16:23:43.975Z,96943.06
2018-11-21T16:26:13.448Z,96938.41
2018-11-21T16:28:45.024Z,96943.02
2018-11-21T16:31:16.871Z,96940.89
2018-11-21T16:33:47.929Z,96942.69
2018-11-21T16:36:18.009Z,96951.55
2018-11-21T16:38:49.194Z,96947.91
2018-11-21T16:41:19.552Z,96949.91
2018-11-21T16:43:50.294Z,96956.23
2018-11-21T16:46:20.917Z,96953.94
2018-11-21T16:48:51.369Z,96957.19
2018-11-21T16:51:20.677Z,96951.74
2018-11-21T16:53:51.370Z,96959.69
2018-11-21T16:56:25.213Z,96966.20
2018-11-21T16:58:55.840Z,96961.38
2018-11-21T17:01:26.927Z,96971.55
2018-11-21T17:03:57.101Z,96968.20
2018-11-21T17:06:28.436Z,96971.03
2018-11-21T17:08:58.883Z,96973.45
2018-11-21T17:11:30.641Z,96973.09
2018-11-21T17:14:09.773Z,96972.23
2018-11-21T17:16:48.260Z,96974.58
2018-11-21T17:19:18.278Z,96980.22
2018-11-21T17:21:49.066Z,96974.84
2018-11-21T17:24:20.349Z,96978.69
2018-11-21T17:26:51.588Z,96970.84
2018-11-21T17:29:35.684Z,96973.55
2018-11-21T17:32:05.669Z,96978.34
2018-11-21T17:34:38.741Z,96977.97
2018-11-21T17:37:29.758Z,96979.83
2018-11-21T17:40:00.800Z,96987.88
2018-11-21T17:42:34.561Z,96987.98
2018-11-21T17:45:05.576Z,96991.28
2018-11-21T17:47:36.079Z,96989.78
2018-11-21T17:50:08.507Z,96988.61
2018-11-21T17:52:49.480Z,96989.41
2018-11-21T17:55:20.683Z,96987.62
2018-11-21T17:57:53.510Z,96994.41
2018-11-21T18:00:24.899Z,96997.06
2018-11-21T18:02:57.158Z,96996.44
2018-11-21T18:05:29.546Z,96995.22
2018-11-21T18:08:07.311Z,97003.92
2018-11-21T18:10:40.231Z,97000.31
2018-11-21T18:13:12.851Z,97002.69
2018-11-21T18:15:43.809Z,97004.30
2018-11-21T18:18:31.016Z,97004.56
2018-11-21T18:21:02.005Z,97006.59
2018-11-21T18:23:45.322Z,97005.21
2018-11-21T18:26:20.578Z,97007.48
2018-11-21T18:28:51.216Z,97008.03
2018-11-21T18:31:24.107Z,97008.80
2018-11-21T18:33:56.988Z,97009.61
2018-11-21T18:36:46.319Z,97008.20
2018-11-21T18:39:18.183Z,97007.03
2018-11-21T18:41:49.930Z,97007.67
2018-11-21T18:44:30.994Z,97008.64
2018-11-21T18:47:02.598Z,97006.70
2018-11-21T18:50:00.074Z,97006.24
2018-11-21T18:52:34.565Z,97013.11
2018-11-21T18:55:07.867Z,97015.42
2018-11-21T18:58:16.047Z,97017.59
2018-11-21T19:00:50.093Z,97015.89
2018-11-21T19:03:20.209Z,97023.86
2018-11-21T19:05:51.773Z,97024.34
2018-11-21T19:08:21.393Z,97029.41
2018-11-21T19:11:09.241Z,97037.98
2018-11-21T19:13:39.751Z,97037.16
2018-11-21T19:16:10.155Z,97033.09
2018-11-21T19:18:40.775Z,97036.39
2018-11-21T19:21:13.674Z,97034.59
2018-11-21T19:23:46.345Z,97038.77
2018-11-21T19:26:40.841Z,97037.97
2018-11-21T19:29:14.324Z,97039.47
2018-11-21T19:32:03.324Z,97044.83
2018-11-21T19:34:33.483Z,97045.29
2018-11-21T19:37:04.987Z,97049.10
2018-11-21T19:39:35.517Z,97043.30
2018-11-21T19:42:06.114Z,97051.13
2018-11-21T19:44:38.681Z,97045.47
2018-11-21T19:47:24.607Z,97045.55
2018-11-21T19:49:55.305Z,97046.84
2018-11-21T19:52:35.099Z,97047.76
2018-11-21T19:55:13.420Z,97054.16
2018-11-21T19:57:43.431Z,97053.78
2018-11-21T20:00:27.825Z,97058.39
2018-11-21T20:02:58.749Z,97056.16
2018-11-21T20:05:28.996Z,97056.94
2018-11-21T20:08:01.062Z,97059.60
2018-11-21T20:10:36.568Z,97064.80
2018-11-21T20:13:07.423Z,97060.67
2018-11-21T20:15:39.180Z,97066.36
2018-11-21T20:18:09.118Z,97064.20
2018-11-21T20:20:39.363Z,97063.78
2018-11-21T20:23:09.490Z,97061.88
2018-11-21T20:25:46.567Z,97061.73
2018-11-21T20:28:21.564Z,97062.84
2018-11-21T20:30:52.216Z,97065.69
2018-11-21T20:33:24.397Z,97064.77
2018-11-21T20:35:55.151Z,97060.98
2018-11-21T20:38:39.774Z,97063.38
2018-11-21T20:41:32.339Z,97059.74
2018-11-21T20:44:15.405Z,97062.27
2018-11-21T20:46:50.219Z,97062.02
2018-11-21T20:49:24.377Z,97060.81
2018-11-21T20:51:56.700Z,97061.02
2018-11-21T20:54:28.175Z,97057.91
2018-11-21T20:56:59.740Z,97054.08
2018-11-21T20:59:30.600Z,97053.16
2018-11-21T21:02:01.840Z,97054.89
2018-11-21T21:04:32.080Z,97054.24
2018-11-21T21:07:02.455Z,97057.55
2018-11-21T21:09:34.057Z,97055.98
2018-11-21T21:12:05.611Z,97057.97
2018-11-21T21:14:37.072Z,97060.02
2018-11-21T21:17:33.625Z,97056.17
2018-11-21T21:20:04.138Z,97052.92
2018-11-21T21:22:45.372Z,97057.55
2018-11-21T21:25:17.516Z,97054.93
2018-11-21T21:27:48.401Z,97057.20
2018-11-21T21:30:20.875Z,97051.97
2018-11-21T21:32:50.750Z,97055.49
2018-11-21T21:35:22.451Z,97044.59
2018-11-21T21:37:53.002Z,97041.00
2018-11-21T21:40:23.965Z,97052.02
2018-11-21T21:43:10.322Z,97047.71
2018-11-21T21:45:43.109Z,97053.27
2018-11-21T21:48:16.275Z,97053.27
